Airport View

Enter AWOS ICAO identifier for current METAR.

ex. KFNL

KRDR 031656Z COR 10SM SCT170 BKN200 30/21 A3007 RMK AO2A SLP182 T03020207 CHINO RWY35 $ COR 1658

3 Jul 2020 17:30

Other Area AWOS: KGFK - KGAF - KCKN - KS32

TAF AMD KRDR 031052Z 0310/0408 15012KT 9999 FEW270 QNH2995INS BECMG 0314/0315 VRB06KT 9999 FEW010 QNH3002INS TX31/0321Z TN22/0311Z LAST NO AMDS AFT 0311 NEXT 0712